createdAt,value
2019-02-24T00:02:57.052Z,102661.83
2019-02-24T00:06:00.531Z,102661.49
2019-02-24T00:09:04.747Z,102657.05
2019-02-24T00:12:10.166Z,102654.88
2019-02-24T00:15:13.655Z,102661.09
2019-02-24T00:18:17.149Z,102667.70
2019-02-24T00:21:20.652Z,102665.54
2019-02-24T00:24:24.137Z,102673.88
2019-02-24T00:27:27.632Z,102661.64
2019-02-24T00:30:31.149Z,102668.70
2019-02-24T00:33:34.678Z,102659.91
2019-02-24T00:36:38.145Z,102664.33
2019-02-24T00:39:41.646Z,102651.61
2019-02-24T00:42:46.213Z,102655.09
2019-02-24T00:45:49.702Z,102657.34
2019-02-24T00:48:53.154Z,102657.34
2019-02-24T00:51:57.702Z,102660.91
2019-02-24T00:55:01.216Z,102653.84
2019-02-24T00:58:04.713Z,102651.27
2019-02-24T01:01:08.239Z,102648.15
2019-02-24T01:04:11.714Z,102642.05
2019-02-24T01:07:15.160Z,102637.23
2019-02-24T01:10:18.724Z,102630.62
2019-02-24T01:13:22.203Z,102634.59
2019-02-24T01:16:25.725Z,102639.03
2019-02-24T01:19:29.231Z,102634.66
2019-02-24T01:22:32.701Z,102623.16
2019-02-24T01:25:36.148Z,102619.66
2019-02-24T01:28:39.605Z,102623.23
2019-02-24T01:31:43.215Z,102632.93
2019-02-24T01:34:47.744Z,102645.31
2019-02-24T01:37:51.226Z,102630.36
2019-02-24T01:40:54.756Z,102599.02
2019-02-24T01:43:58.241Z,102600.34
2019-02-24T01:47:01.749Z,102611.84
2019-02-24T01:50:05.544Z,102596.44
2019-02-24T01:53:09.066Z,102596.44
2019-02-24T01:56:12.529Z,102592.48
2019-02-24T01:59:16.172Z,102594.31
2019-02-24T02:02:19.706Z,102594.31
2019-02-24T02:05:23.235Z,102597.40
2019-02-24T02:08:26.876Z,102601.41
2019-02-24T02:11:30.440Z,102596.55
2019-02-24T02:14:34.085Z,102608.93
2019-02-24T02:17:37.579Z,102608.93
2019-02-24T02:20:41.083Z,102616.46
2019-02-24T02:23:44.707Z,102615.58
2019-02-24T02:26:48.301Z,102608.05
2019-02-24T02:29:51.749Z,102602.39
2019-02-24T02:32:55.281Z,102608.59
2019-02-24T02:35:58.799Z,102596.26
2019-02-24T02:39:02.297Z,102592.29
2019-02-24T02:42:05.820Z,102590.48
2019-02-24T02:45:09.332Z,102579.54
2019-02-24T02:48:12.858Z,102579.13
2019-02-24T02:51:16.508Z,102576.93
2019-02-24T02:54:20.033Z,102587.51
2019-02-24T02:57:23.487Z,102588.42
2019-02-24T03:00:29.852Z,102585.78
2019-02-24T03:03:33.357Z,102598.12
2019-02-24T03:06:41.748Z,102584.53
2019-02-24T03:09:45.279Z,102575.27
2019-02-24T03:12:48.792Z,102592.94
2019-02-24T03:15:52.319Z,102597.80
2019-02-24T03:18:55.778Z,102599.08
2019-02-24T03:21:59.322Z,102596.44
2019-02-24T03:25:02.798Z,102599.08
2019-02-24T03:28:06.377Z,102596.00
2019-02-24T03:31:09.896Z,102595.59
2019-02-24T03:34:13.339Z,102593.45
2019-02-24T03:37:16.796Z,102601.80
2019-02-24T03:40:20.254Z,102604.47
2019-02-24T03:43:24.839Z,102616.85
2019-02-24T03:46:30.356Z,102612.85
2019-02-24T03:49:35.898Z,102609.80
2019-02-24T03:52:39.409Z,102616.85
2019-02-24T03:55:44.965Z,102608.95
2019-02-24T03:58:48.473Z,102601.45
2019-02-24T04:01:51.983Z,102587.80
2019-02-24T04:04:55.531Z,102598.38
2019-02-24T04:07:58.960Z,102593.56
2019-02-24T04:11:02.424Z,102588.75
2019-02-24T04:14:05.995Z,102594.52
2019-02-24T04:17:10.486Z,102588.30
2019-02-24T04:20:13.944Z,102595.83
2019-02-24T04:23:17.524Z,102590.55
2019-02-24T04:26:21.002Z,102576.48
2019-02-24T04:29:25.391Z,102591.02
2019-02-24T04:32:29.138Z,102587.46
2019-02-24T04:35:32.804Z,102585.73
2019-02-24T04:38:36.436Z,102595.91
2019-02-24T04:41:39.934Z,102587.13
2019-02-24T04:44:43.480Z,102597.22
2019-02-24T04:47:46.938Z,102598.58
2019-02-24T04:50:50.438Z,102589.36
2019-02-24T04:53:54.989Z,102596.78
2019-02-24T04:56:58.485Z,102574.82
2019-02-24T05:00:01.977Z,102574.82
2019-02-24T05:03:06.493Z,102575.73
2019-02-24T05:06:09.998Z,102588.04
2019-02-24T05:09:13.499Z,102591.60
2019-02-24T05:12:17.026Z,102584.55
2019-02-24T05:15:20.501Z,102587.20
2019-02-24T05:18:23.986Z,102574.89
2019-02-24T05:21:27.522Z,102585.47
2019-02-24T05:24:30.985Z,102568.72
2019-02-24T05:27:34.494Z,102555.98
2019-02-24T05:30:37.980Z,102551.13
2019-02-24T05:33:41.573Z,102547.20
2019-02-24T05:36:45.040Z,102540.14
2019-02-24T05:39:48.541Z,102535.78
2019-02-24T05:42:52.000Z,102531.81
2019-02-24T05:45:55.599Z,102529.61
2019-02-24T05:48:59.053Z,102522.16
2019-02-24T05:52:02.519Z,102518.59
2019-02-24T05:55:06.132Z,102513.41
2019-02-24T05:58:09.692Z,102521.23
2019-02-24T06:01:15.275Z,102514.22
2019-02-24T06:04:19.780Z,102520.02
2019-02-24T06:07:23.282Z,102520.42
2019-02-24T06:10:27.844Z,102524.84
2019-02-24T06:13:31.303Z,102519.58
2019-02-24T06:16:35.823Z,102532.39
2019-02-24T06:19:39.355Z,102524.47
2019-02-24T06:22:42.831Z,102539.00
2019-02-24T06:25:46.360Z,102543.41
2019-02-24T06:28:49.827Z,102554.45
2019-02-24T06:31:53.371Z,102546.53
2019-02-24T06:34:57.869Z,102541.23
2019-02-24T06:38:02.457Z,102544.29
2019-02-24T06:41:06.095Z,102543.45
2019-02-24T06:44:09.620Z,102550.05
2019-02-24T06:47:13.081Z,102542.13
2019-02-24T06:50:16.610Z,102556.66
2019-02-24T06:53:20.069Z,102543.45
2019-02-24T06:56:23.607Z,102545.65
2019-02-24T06:59:27.101Z,102546.09
2019-02-24T07:02:30.616Z,102530.30
2019-02-24T07:05:34.158Z,102532.02
2019-02-24T07:08:37.813Z,102528.98
2019-02-24T07:11:41.403Z,102525.86
2019-02-24T07:14:44.861Z,102532.50
2019-02-24T07:17:48.341Z,102527.69
2019-02-24T07:20:51.814Z,102526.81
2019-02-24T07:23:55.314Z,102528.09
2019-02-24T07:26:59.880Z,102525.48
2019-02-24T07:30:03.376Z,102510.95
2019-02-24T07:33:06.890Z,102525.89
2019-02-24T07:36:10.336Z,102519.28
2019-02-24T07:39:13.795Z,102525.05
2019-02-24T07:42:17.343Z,102538.70
2019-02-24T07:45:21.889Z,102546.23
2019-02-24T07:48:25.484Z,102537.38
2019-02-24T07:51:28.961Z,102539.14
2019-02-24T07:54:32.486Z,102537.42
2019-02-24T07:57:36.191Z,102540.94
2019-02-24T08:00:39.756Z,102533.02
2019-02-24T08:03:43.412Z,102532.57
2019-02-24T08:06:46.999Z,102536.97
2019-02-24T08:09:50.525Z,102532.57
2019-02-24T08:12:54.016Z,102544.47
2019-02-24T08:15:57.597Z,102550.66
2019-02-24T08:19:01.207Z,102552.39
2019-02-24T08:22:05.004Z,102555.95
2019-02-24T08:25:08.712Z,102562.09
2019-02-24T08:28:12.343Z,102561.10
2019-02-24T08:31:16.845Z,102561.10
2019-02-24T08:34:21.384Z,102561.95
2019-02-24T08:37:24.861Z,102567.67
2019-02-24T08:40:28.378Z,102567.67
2019-02-24T08:43:31.901Z,102568.97
2019-02-24T08:46:35.393Z,102577.67
2019-02-24T08:49:38.901Z,102585.20
2019-02-24T08:52:42.371Z,102589.09
2019-02-24T08:55:45.941Z,102594.79
2019-02-24T08:58:49.585Z,102593.40
2019-02-24T09:01:54.136Z,102597.36
2019-02-24T09:04:57.712Z,102606.59
2019-02-24T09:08:01.311Z,102603.56
2019-02-24T09:11:04.790Z,102608.83
2019-02-24T09:14:09.469Z,102612.31
2019-02-24T09:17:15.117Z,102605.23
2019-02-24T09:20:18.758Z,102596.89
2019-02-24T09:23:24.364Z,102605.63
2019-02-24T09:26:29.993Z,102613.97
2019-02-24T09:29:33.611Z,102628.48
2019-02-24T09:32:37.122Z,102629.84
2019-02-24T09:35:40.604Z,102634.21
2019-02-24T09:38:44.113Z,102633.73
2019-02-24T09:41:47.653Z,102628.52
2019-02-24T09:44:51.158Z,102617.87
2019-02-24T09:47:54.848Z,102609.05
2019-02-24T09:50:58.466Z,102610.81
2019-02-24T09:54:01.938Z,102615.23
2019-02-24T09:57:05.609Z,102605.56
2019-02-24T10:00:09.993Z,102600.28
2019-02-24T10:03:13.633Z,102604.61
2019-02-24T10:06:17.390Z,102598.48
2019-02-24T10:09:20.979Z,102599.33
2019-02-24T10:12:24.486Z,102590.95
2019-02-24T10:15:27.985Z,102594.92
2019-02-24T10:18:31.471Z,102598.48
2019-02-24T10:21:40.902Z,102591.02
2019-02-24T10:24:44.466Z,102589.22
2019-02-24T10:27:48.929Z,102591.02
2019-02-24T10:30:52.449Z,102583.09
2019-02-24T10:33:57.010Z,102572.03
2019-02-24T10:37:00.651Z,102576.00
2019-02-24T10:40:05.283Z,102573.77
2019-02-24T10:43:08.958Z,102578.14
2019-02-24T10:46:12.632Z,102564.91
2019-02-24T10:49:18.142Z,102563.62
2019-02-24T10:52:21.629Z,102563.19
2019-02-24T10:55:26.195Z,102560.47
2019-02-24T10:58:34.819Z,102559.88
2019-02-24T11:01:35.092Z,102558.01
2019-02-24T11:04:38.761Z,102552.53
2019-02-24T11:07:42.194Z,102559.00
2019-02-24T11:10:45.803Z,102551.83
2019-02-24T11:13:50.434Z,102546.83
2019-02-24T11:16:53.960Z,102539.70
2019-02-24T11:19:57.497Z,102532.84
2019-02-24T11:23:00.951Z,102526.55
2019-02-24T11:26:04.470Z,102518.98
2019-02-24T11:29:08.127Z,102513.16
2019-02-24T11:32:11.657Z,102509.58
2019-02-24T11:35:15.162Z,102493.62
2019-02-24T11:38:18.682Z,102498.31
2019-02-24T11:41:22.169Z,102496.91
2019-02-24T11:44:25.682Z,102497.27
2019-02-24T11:47:30.203Z,102495.86
2019-02-24T11:50:33.694Z,102499.21
2019-02-24T11:53:37.211Z,102497.41
2019-02-24T11:56:40.706Z,102493.83
2019-02-24T11:59:44.217Z,102500.33
2019-02-24T12:02:47.695Z,102503.33
2019-02-24T12:05:51.303Z,102509.34
2019-02-24T12:08:54.912Z,102508.42
2019-02-24T12:11:58.430Z,102503.03
2019-02-24T12:15:02.945Z,102501.63
2019-02-24T12:18:06.453Z,102497.96
2019-02-24T12:21:11.109Z,102497.47
2019-02-24T12:24:15.000Z,102503.48
2019-02-24T12:27:18.583Z,102514.87
2019-02-24T12:30:22.294Z,102517.87
2019-02-24T12:33:25.794Z,102515.53
2019-02-24T12:36:30.336Z,102509.75
2019-02-24T12:39:33.811Z,102517.95
2019-02-24T12:42:37.389Z,102513.92
2019-02-24T12:45:40.943Z,102516.05
2019-02-24T12:48:44.408Z,102513.31
2019-02-24T12:51:47.940Z,102513.22
2019-02-24T12:54:51.553Z,102509.59
2019-02-24T12:57:55.009Z,102511.30
2019-02-24T13:00:58.522Z,102514.70
2019-02-24T13:04:03.193Z,102508.03
2019-02-24T13:07:06.990Z,102501.75
2019-02-24T13:10:12.050Z,102500.29
2019-02-24T13:13:15.504Z,102504.27
2019-02-24T13:16:18.998Z,102503.72
2019-02-24T13:19:22.507Z,102500.14
2019-02-24T13:22:26.027Z,102494.74
2019-02-24T13:25:29.540Z,102493.32
2019-02-24T13:28:34.721Z,102484.84
2019-02-24T13:31:38.192Z,102472.80
2019-02-24T13:34:41.653Z,102470.94
2019-02-24T13:37:45.158Z,102469.08
2019-02-24T13:40:48.728Z,102467.70
2019-02-24T13:43:52.337Z,102458.81
2019-02-24T13:46:55.904Z,102465.34
2019-02-24T13:49:59.458Z,102458.22
2019-02-24T13:53:02.980Z,102462.09
2019-02-24T13:56:07.578Z,102462.09
2019-02-24T13:59:11.181Z,102454.93
2019-02-24T14:02:23.595Z,102447.80
2019-02-24T14:05:20.874Z,102452.57
2019-02-24T14:08:24.371Z,102453.00
2019-02-24T14:11:27.827Z,102455.95
2019-02-24T14:14:31.327Z,102451.91
2019-02-24T14:17:34.863Z,102455.40
2019-02-24T14:20:38.368Z,102460.65
2019-02-24T14:23:41.891Z,102455.34
2019-02-24T14:26:45.378Z,102449.14
2019-02-24T14:29:48.848Z,102447.28
2019-02-24T14:32:52.689Z,102448.20
2019-02-24T14:35:56.215Z,102445.55
2019-02-24T14:38:59.779Z,102449.19
2019-02-24T14:42:04.141Z,102459.83
2019-02-24T14:45:13.428Z,102458.95
2019-02-24T14:48:17.004Z,102459.92
2019-02-24T14:51:21.586Z,102477.67
2019-02-24T14:54:25.691Z,102481.20
2019-02-24T14:57:29.606Z,102479.92
2019-02-24T15:00:34.202Z,102481.30
2019-02-24T15:03:37.719Z,102486.66
2019-02-24T15:06:41.222Z,102493.83
2019-02-24T15:09:44.858Z,102490.24
2019-02-24T15:12:48.352Z,102486.77
2019-02-24T15:15:52.096Z,102486.77
2019-02-24T15:18:55.729Z,102493.39
2019-02-24T15:22:00.252Z,102492.12
2019-02-24T15:25:03.955Z,102491.77
2019-02-24T15:28:07.399Z,102496.20
2019-02-24T15:31:10.870Z,102482.59
2019-02-24T15:34:14.484Z,102475.11
2019-02-24T15:37:20.019Z,102468.62
2019-02-24T15:40:23.569Z,102465.98
2019-02-24T15:43:27.236Z,102451.39
2019-02-24T15:46:30.754Z,102449.19
2019-02-24T15:49:34.206Z,102447.46
2019-02-24T15:52:37.719Z,102440.88
2019-02-24T15:55:41.228Z,102454.14
2019-02-24T15:58:44.776Z,102462.59
2019-02-24T16:01:48.467Z,102468.38
2019-02-24T16:04:52.029Z,102463.02
2019-02-24T16:07:55.668Z,102466.17
2019-02-24T16:11:00.188Z,102468.83
2019-02-24T16:14:03.651Z,102456.50
2019-02-24T16:17:07.075Z,102456.06
2019-02-24T16:20:14.293Z,102457.52
2019-02-24T16:23:17.856Z,102453.99
2019-02-24T16:26:27.306Z,102450.46
2019-02-24T16:29:30.801Z,102444.81
2019-02-24T16:32:35.376Z,102449.67
2019-02-24T16:35:38.859Z,102452.77
2019-02-24T16:38:42.325Z,102457.19
2019-02-24T16:41:45.824Z,102451.48
2019-02-24T16:44:49.419Z,102447.91
2019-02-24T16:47:53.057Z,102458.56
2019-02-24T16:50:56.536Z,102466.95
2019-02-24T16:54:00.051Z,102466.47
2019-02-24T16:57:05.885Z,102456.39
2019-02-24T17:00:11.758Z,102460.42
2019-02-24T17:03:19.814Z,102452.02
2019-02-24T17:06:20.800Z,102451.59
2019-02-24T17:09:24.327Z,102464.84
2019-02-24T17:12:27.800Z,102464.45
2019-02-24T17:15:31.267Z,102469.35
2019-02-24T17:18:34.904Z,102461.80
2019-02-24T17:21:38.513Z,102465.77
2019-02-24T17:24:43.071Z,102462.29
2019-02-24T17:27:46.646Z,102456.09
2019-02-24T17:30:50.234Z,102451.69
2019-02-24T17:33:53.866Z,102460.52
2019-02-24T17:36:57.500Z,102473.33
2019-02-24T17:40:01.202Z,102473.33
2019-02-24T17:43:04.970Z,102478.20
2019-02-24T17:46:08.576Z,102475.55
2019-02-24T17:49:12.190Z,102475.55
2019-02-24T17:52:15.777Z,102478.25
2019-02-24T17:55:19.282Z,102485.30
2019-02-24T17:58:24.835Z,102493.31
2019-02-24T18:01:28.310Z,102491.05
2019-02-24T18:04:31.830Z,102482.70
2019-02-24T18:07:35.430Z,102491.58
2019-02-24T18:10:39.020Z,102484.95
2019-02-24T18:13:42.595Z,102492.43
2019-02-24T18:16:46.063Z,102485.80
2019-02-24T18:19:49.581Z,102482.70
2019-02-24T18:22:53.064Z,102484.95
2019-02-24T18:25:56.580Z,102487.13
2019-02-24T18:29:01.096Z,102492.48
2019-02-24T18:32:04.586Z,102486.33
2019-02-24T18:35:08.060Z,102482.40
2019-02-24T18:38:11.530Z,102489.83
2019-02-24T18:41:15.049Z,102485.45
2019-02-24T18:44:18.506Z,102484.13
2019-02-24T18:47:22.088Z,102480.15
2019-02-24T18:50:25.619Z,102475.30
2019-02-24T18:53:29.094Z,102471.27
2019-02-24T18:56:32.538Z,102476.62
2019-02-24T18:59:35.985Z,102481.43
2019-02-24T19:02:39.605Z,102488.20
2019-02-24T19:05:43.065Z,102484.31
2019-02-24T19:08:46.737Z,102488.39
2019-02-24T19:11:50.343Z,102485.38
2019-02-24T19:14:54.065Z,102490.33
2019-02-24T19:17:57.517Z,102485.52
2019-02-24T19:21:02.033Z,102485.57
2019-02-24T19:24:05.572Z,102500.20
2019-02-24T19:27:09.015Z,102498.07
2019-02-24T19:30:13.862Z,102487.47
2019-02-24T19:33:17.505Z,102486.16
2019-02-24T19:36:20.995Z,102484.83
2019-02-24T19:39:24.472Z,102487.53
2019-02-24T19:42:28.003Z,102490.67
2019-02-24T19:45:31.456Z,102493.32
2019-02-24T19:48:41.812Z,102499.95
2019-02-24T19:51:40.179Z,102506.17
2019-02-24T19:54:43.860Z,102509.27
2019-02-24T19:57:47.361Z,102510.19
2019-02-24T20:00:50.846Z,102515.53
2019-02-24T20:03:54.452Z,102516.86
2019-02-24T20:06:57.947Z,102520.39
2019-02-24T20:10:01.551Z,102526.13
2019-02-24T20:13:05.027Z,102529.70
2019-02-24T20:16:09.544Z,102532.84
2019-02-24T20:19:13.016Z,102534.61
2019-02-24T20:22:16.551Z,102535.55
2019-02-24T20:25:20.084Z,102535.14
2019-02-24T20:28:23.585Z,102529.84
2019-02-24T20:31:27.136Z,102537.79
2019-02-24T20:34:30.650Z,102526.84
2019-02-24T20:37:34.180Z,102520.21
2019-02-24T20:40:37.631Z,102527.23
2019-02-24T20:43:41.112Z,102531.25
2019-02-24T20:46:44.760Z,102537.03
2019-02-24T20:49:48.438Z,102541.89
2019-02-24T20:52:51.950Z,102529.98
2019-02-24T20:55:55.496Z,102532.63
2019-02-24T20:58:59.422Z,102529.98
2019-02-24T21:02:03.082Z,102529.98
2019-02-24T21:05:07.017Z,102528.25
2019-02-24T21:08:10.572Z,102526.52
2019-02-24T21:11:14.116Z,102536.23
2019-02-24T21:14:17.688Z,102545.47
2019-02-24T21:17:21.128Z,102546.84
2019-02-24T21:20:26.146Z,102539.77
2019-02-24T21:23:29.622Z,102541.58
2019-02-24T21:26:33.126Z,102540.78
2019-02-24T21:29:36.658Z,102538.22
2019-02-24T21:32:40.132Z,102530.27
2019-02-24T21:35:43.731Z,102528.55
2019-02-24T21:38:47.356Z,102525.06
2019-02-24T21:41:50.853Z,102531.68
2019-02-24T21:44:54.368Z,102525.14
2019-02-24T21:47:57.832Z,102532.69
2019-02-24T21:51:03.392Z,102522.59
2019-02-24T21:54:07.939Z,102525.23
2019-02-24T21:57:11.512Z,102525.27
2019-02-24T22:00:16.906Z,102527.97
2019-02-24T22:03:20.430Z,102532.42
2019-02-24T22:06:23.868Z,102528.53
2019-02-24T22:09:27.485Z,102533.34
2019-02-24T22:12:31.173Z,102536.92
2019-02-24T22:15:34.687Z,102536.08
2019-02-24T22:18:38.210Z,102529.94
2019-02-24T22:21:41.689Z,102533.55
2019-02-24T22:24:47.366Z,102538.41
2019-02-24T22:27:50.888Z,102540.66
2019-02-24T22:30:54.446Z,102542.47
2019-02-24T22:33:57.949Z,102548.69
2019-02-24T22:37:02.474Z,102553.98
2019-02-24T22:40:06.822Z,102552.17
2019-02-24T22:43:10.269Z,102546.13
2019-02-24T22:46:13.825Z,102551.41
2019-02-24T22:49:17.289Z,102552.74
2019-02-24T22:52:20.779Z,102554.14
2019-02-24T22:55:24.278Z,102550.17
2019-02-24T22:58:27.772Z,102548.45
2019-02-24T23:01:37.920Z,102543.59
2019-02-24T23:04:41.567Z,102548.53
2019-02-24T23:07:46.081Z,102552.50
2019-02-24T23:10:50.705Z,102546.80
2019-02-24T23:13:54.754Z,102550.38
2019-02-24T23:16:58.212Z,102545.56
2019-02-24T23:20:01.805Z,102540.67
2019-02-24T23:23:05.314Z,102532.33
2019-02-24T23:26:08.828Z,102534.05
2019-02-24T23:29:12.416Z,102540.75
2019-02-24T23:32:16.078Z,102535.05
2019-02-24T23:35:19.645Z,102538.62
2019-02-24T23:38:23.151Z,102538.66
2019-02-24T23:41:26.639Z,102536.89
2019-02-24T23:44:30.141Z,102530.77
2019-02-24T23:47:34.527Z,102528.16
2019-02-24T23:50:38.154Z,102531.68
2019-02-24T23:53:41.704Z,102526.83
2019-02-24T23:56:46.209Z,102527.27
2019-02-24T23:59:50.105Z,102525.52
